Welcome to our new website - Welkom op onze vernieuwde website - Bienvenue sur notre nouveau site web - Willkommen auf unserer neuen Website

Lokaal brand risico:
CBI


Regionaal brand risico: Meer informatie


Weerstation
Sluispark-LeuvenLeuven-Sluispark



Het weer levert geen direct gevaar op.    Er zijn geen waarschuwingen afgegeven.

Nabijgelegen vliegvelden - METAR rapporten

   
EBBR - Wilsele bij Leuven
Gewijzigd: 23-06-2018 01:50
Helder    Wind: NW 9.3 km/h
Helder
Wind: Wind: NW 9.3 km/h
Temperatuur: 9°C
Voelt als: 8°C
Dauwpunt: 6°C
Vochtigheid: 82%
Barometer: 1029 hPa
Zicht: meer dan 10 km
Bewolking: Helder
EBBR 222350Z 31005KT CAVOK 09/06 Q1029 NOSIG
EBAW - Antwerp
Gewijzigd: 23-06-2018 01:50
Helder    Wind: NNW 7.4 km/h
Helder
Wind: Wind: NNW 7.4 km/h
Temperatuur: 11°C
Dauwpunt: 6°C
Vochtigheid: 72%
Barometer: 1029 hPa
Zicht: meer dan 10 km
Bewolking: Helder
EBAW 222350Z AUTO 34004KT CAVOK 11/06 Q1029
EBLG - Li├Ęge
Gewijzigd: 23-06-2018 01:50
Gedeeltelijk bewolkt    Wind: NW 5.6 km/h
Gedeeltelijk bewolkt
Wind: Wind: NW 5.6 km/h
Temperatuur: 9°C
Voelt als: 8°C
Dauwpunt: 7°C
Vochtigheid: 87%
Barometer: 1028 hPa
Bewolking: Gedeeltelijk bewolkt
Zicht: meer dan 10 km
Bewolking: Gedeeltelijk bewolkt 1097.3 m
EBLG 222350Z 32003KT 9999 SCT036 09/07 Q1028 NOSIG
EBCV - Mons/Bergen
Gewijzigd: 23-06-2018 01:55
Helder    Wind: varieert 3.7 km/h
Helder
Wind: Wind: varieert 3.7 km/h
Temperatuur: 8°C
Dauwpunt: 6°C
Vochtigheid: 87%
Barometer: 1030 hPa
Bewolking: Helder
Zicht: meer dan 10 km
Bewolking: Helder
EBCV 222355Z AUTO VRB02KT 9999 NCD 08/06 Q1030 BLU
EHBK - Maastricht
Gewijzigd: 23-06-2018 01:55
Gedeeltelijk bewolkt    Wind: Westen 7.4 km/h
Gedeeltelijk bewolkt
Wind: Wind: Westen 7.4 km/h
Temperatuur: 9°C
Voelt als: 8°C
Dauwpunt: 7°C
Vochtigheid: 87%
Barometer: 1028 hPa
Bewolking: Gedeeltelijk bewolkt
Zicht: meer dan 10 km
Bewolking: Gedeeltelijk bewolkt
EHBK 222355Z AUTO 27004KT 230V320 9999 NSC 09/07 Q1028
ELLX - Luxemburg
Gewijzigd: 23-06-2018 01:50
Helder    Wind: Noorden 11.1 km/h
Helder
Wind: Wind: Noorden 11.1 km/h
Temperatuur: 9°C
Voelt als: 7°C
Dauwpunt: 7°C
Vochtigheid: 87%
Barometer: 1027 hPa
Zicht: meer dan 10 km
Bewolking: Helder
ELLX 222350Z 01006KT CAVOK 09/07 Q1027 NOSIG
EBOS - Oostende
Gewijzigd: 23-06-2018 01:50
Helder    Wind: varieert 1.9 km/h
Helder
Wind: Wind: varieert 1.9 km/h
Temperatuur: 7°C
Dauwpunt: 4°C
Vochtigheid: 81%
Barometer: 1030 hPa
Zicht: meer dan 10 km
Bewolking: Helder
EBOS 222350Z VRB01KT CAVOK 07/04 Q1030 NOSIG
  

Script ontwikkeld door  Saratoga-weather.org Aangepast voor de template door  Weerstation Leuven

U vindt ons ook hier:

UK Metoffice

WeatherCloud

European Weather Network

Weather Underground

Benelux Weather Network

AWEKAS

WeatherlinkIP

Het Weer Aktueel

Apparatuur in gebruik:

Weer-station
Davis VP2 weatherstation

Weer-programma
Meteobridge

Weer-computer
Asus WL -330N3G

Webleverancier
Robohost

Davis VP2 weatherstation

Meteobridge

Asus WL -330N3G

Robohost